createdAt,value
2018-07-25T00:01:56.024Z,22.00
2018-07-25T00:04:25.456Z,21.90
2018-07-25T00:06:55.041Z,21.90
2018-07-25T00:09:24.366Z,21.90
2018-07-25T00:11:53.757Z,21.70
2018-07-25T00:14:23.652Z,21.40
2018-07-25T00:16:53.117Z,21.20
2018-07-25T00:19:22.509Z,21.30
2018-07-25T00:21:51.975Z,21.30
2018-07-25T00:24:21.426Z,21.30
2018-07-25T00:26:50.896Z,21.10
2018-07-25T00:29:20.709Z,21.10
2018-07-25T00:31:50.105Z,21.20
2018-07-25T00:34:19.702Z,21.10
2018-07-25T00:36:49.058Z,21.10
2018-07-25T00:44:17.227Z,21.30
2018-07-25T00:46:46.612Z,21.30
2018-07-25T00:49:16.111Z,21.30
2018-07-25T00:51:45.685Z,21.20
2018-07-25T00:54:15.142Z,21.00
2018-07-25T00:56:44.489Z,21.00
2018-07-25T00:59:13.979Z,21.00
2018-07-25T01:04:12.174Z,21.10
2018-07-25T01:06:41.535Z,21.00
2018-07-25T01:09:11.788Z,21.00
2018-07-25T01:14:10.098Z,20.90
2018-07-25T01:16:39.543Z,20.90
2018-07-25T01:19:09.005Z,21.00
2018-07-25T01:21:38.478Z,21.00
2018-07-25T01:24:07.946Z,20.90
2018-07-25T01:26:37.343Z,20.70
2018-07-25T01:29:06.880Z,20.80
2018-07-25T01:31:36.356Z,20.70
2018-07-25T01:34:05.733Z,20.70
2018-07-25T01:36:35.078Z,20.60
2018-07-25T01:39:06.601Z,20.60
2018-07-25T01:41:35.929Z,20.60
2018-07-25T01:44:05.416Z,20.60
2018-07-25T01:46:34.836Z,20.50
2018-07-25T01:49:04.330Z,20.50
2018-07-25T01:51:33.768Z,20.40
2018-07-25T01:56:32.118Z,20.40
2018-07-25T01:59:01.502Z,20.40
2018-07-25T02:01:30.991Z,20.30
2018-07-25T02:04:00.399Z,20.40
2018-07-25T02:06:29.949Z,20.30
2018-07-25T02:08:59.349Z,20.10
2018-07-25T02:11:28.948Z,19.90
2018-07-25T02:13:58.451Z,20.10
2018-07-25T02:16:28.005Z,20.00
2018-07-25T02:18:57.596Z,20.00
2018-07-25T02:21:27.032Z,19.90
2018-07-25T02:23:56.368Z,20.00
2018-07-25T02:26:25.977Z,20.10
2018-07-25T02:28:55.381Z,20.00
2018-07-25T02:31:24.749Z,20.00
2018-07-25T02:33:59.754Z,20.00
2018-07-25T02:36:29.252Z,19.90
2018-07-25T02:38:58.747Z,19.90
2018-07-25T02:41:28.242Z,19.90
2018-07-25T02:43:57.674Z,19.90
2018-07-25T02:48:55.997Z,19.80
2018-07-25T02:51:25.393Z,19.80
2018-07-25T02:53:54.891Z,19.60
2018-07-25T02:56:24.442Z,19.50
2018-07-25T02:58:53.871Z,19.50
2018-07-25T03:01:23.265Z,19.50
2018-07-25T03:03:52.669Z,19.40
2018-07-25T03:06:22.189Z,19.50
2018-07-25T03:08:51.611Z,19.50
2018-07-25T03:11:21.083Z,19.40
2018-07-25T03:13:50.492Z,19.50
2018-07-25T03:16:19.931Z,19.40
2018-07-25T03:18:49.283Z,19.30
2018-07-25T03:21:18.965Z,19.20
2018-07-25T03:23:48.484Z,19.30
2018-07-25T03:26:17.865Z,19.20
2018-07-25T03:28:47.320Z,19.10
2018-07-25T03:31:17.005Z,19.00
2018-07-25T03:36:15.314Z,18.90
2018-07-25T03:38:44.823Z,19.10
2018-07-25T03:41:14.214Z,19.00
2018-07-25T03:43:43.656Z,19.00
2018-07-25T03:46:13.067Z,19.20
2018-07-25T03:48:42.595Z,19.00
2018-07-25T03:51:12.041Z,19.00
2018-07-25T03:53:41.372Z,18.90
2018-07-25T03:58:40.284Z,19.00
2018-07-25T04:03:38.590Z,18.90
2018-07-25T04:06:08.589Z,19.00
2018-07-25T04:08:38.038Z,19.00
2018-07-25T04:11:07.709Z,18.80
2018-07-25T04:13:37.128Z,18.80
2018-07-25T04:16:06.658Z,18.90
2018-07-25T04:18:36.039Z,19.00
2018-07-25T04:21:06.303Z,19.00
2018-07-25T04:23:35.772Z,18.90
2018-07-25T04:26:05.205Z,19.00
2018-07-25T04:28:34.569Z,18.90
2018-07-25T04:31:04.150Z,18.90
2018-07-25T04:36:02.664Z,19.30
2018-07-25T04:38:32.109Z,19.50
2018-07-25T04:41:01.487Z,19.70
2018-07-25T04:43:30.913Z,20.10
2018-07-25T04:46:00.412Z,20.30
2018-07-25T04:48:29.798Z,20.60
2018-07-25T04:50:59.294Z,20.60
2018-07-25T04:53:28.917Z,20.60
2018-07-25T04:55:58.542Z,20.90
2018-07-25T04:58:29.549Z,21.10
2018-07-25T05:00:59.873Z,20.80
2018-07-25T05:03:29.425Z,20.90
2018-07-25T05:05:58.966Z,20.80
2018-07-25T05:08:28.576Z,20.40
2018-07-25T05:10:58.099Z,20.50
2018-07-25T05:13:28.039Z,20.80
2018-07-25T05:15:57.435Z,21.20
2018-07-25T05:18:27.055Z,21.00
2018-07-25T05:20:56.443Z,21.30
2018-07-25T05:23:25.978Z,21.70
2018-07-25T05:28:24.745Z,21.90
2018-07-25T05:30:54.355Z,22.10
2018-07-25T05:33:23.838Z,22.30
2018-07-25T05:35:53.303Z,22.50
2018-07-25T05:38:22.808Z,22.80
2018-07-25T05:40:52.207Z,22.90
2018-07-25T05:43:21.671Z,23.20
2018-07-25T05:45:51.115Z,23.30
2018-07-25T05:48:20.475Z,23.40
2018-07-25T05:50:49.960Z,23.60
2018-07-25T05:53:19.305Z,23.60
2018-07-25T05:55:48.765Z,23.70
2018-07-25T05:58:18.147Z,24.00
2018-07-25T06:00:47.632Z,24.40
2018-07-25T06:03:17.091Z,24.60
2018-07-25T06:05:46.449Z,24.30
2018-07-25T06:08:15.901Z,24.10
2018-07-25T06:10:45.389Z,23.90
2018-07-25T06:13:14.885Z,24.10
2018-07-25T06:15:44.611Z,24.20
2018-07-25T06:18:14.057Z,23.80
2018-07-25T06:20:43.576Z,23.70
2018-07-25T06:23:12.951Z,23.90
2018-07-25T06:25:42.423Z,24.00
2018-07-25T06:28:12.001Z,25.00
2018-07-25T06:30:41.550Z,25.40
2018-07-25T06:33:10.931Z,25.50
2018-07-25T06:35:40.500Z,25.60
2018-07-25T06:38:10.053Z,26.10
2018-07-25T06:40:39.411Z,25.80
2018-07-25T06:45:37.772Z,26.10
2018-07-25T06:48:07.103Z,26.10
2018-07-25T06:50:36.601Z,26.20
2018-07-25T06:53:06.101Z,26.20
2018-07-25T06:55:35.649Z,26.70
2018-07-25T06:58:05.281Z,27.10
2018-07-25T07:00:34.656Z,27.50
2018-07-25T07:03:04.136Z,27.60
2018-07-25T07:08:02.516Z,27.70
2018-07-25T07:10:32.311Z,28.10
2018-07-25T07:13:01.765Z,27.90
2018-07-25T07:15:31.480Z,27.60
2018-07-25T07:18:00.911Z,27.40
2018-07-25T07:20:30.516Z,27.60
2018-07-25T07:23:00.003Z,27.30
2018-07-25T07:25:30.508Z,27.10
2018-07-25T07:28:00.168Z,27.00
2018-07-25T07:30:29.690Z,27.50
2018-07-25T07:32:59.147Z,28.00
2018-07-25T07:35:28.545Z,28.60
2018-07-25T07:37:57.949Z,29.10
2018-07-25T07:40:27.337Z,30.20
2018-07-25T07:42:56.894Z,29.90
2018-07-25T07:45:26.357Z,29.50
2018-07-25T07:47:55.861Z,30.20
2018-07-25T07:50:26.118Z,30.40
2018-07-25T07:52:55.579Z,30.60
2018-07-25T07:55:25.006Z,30.00
2018-07-25T07:57:54.458Z,30.60
2018-07-25T08:02:52.901Z,31.20
2018-07-25T08:05:22.280Z,31.40
2018-07-25T08:07:51.699Z,30.90
2018-07-25T08:10:21.210Z,30.60
2018-07-25T08:12:50.577Z,30.60
2018-07-25T08:15:20.008Z,30.80
2018-07-25T08:17:49.646Z,31.20
2018-07-25T08:20:19.066Z,32.10
2018-07-25T08:22:48.634Z,31.70
2018-07-25T08:25:18.012Z,31.30
2018-07-25T08:27:47.460Z,31.70
2018-07-25T08:30:16.838Z,31.10
2018-07-25T08:32:46.426Z,31.00
2018-07-25T08:35:15.814Z,31.50
2018-07-25T08:37:45.884Z,32.60
2018-07-25T08:40:15.338Z,32.90
2018-07-25T08:42:44.707Z,33.10
2018-07-25T08:45:14.102Z,33.10
2018-07-25T08:47:43.564Z,32.40
2018-07-25T08:50:12.982Z,33.10
2018-07-25T08:52:42.419Z,33.70
2018-07-25T08:55:11.937Z,33.20
2018-07-25T08:57:41.543Z,33.10
2018-07-25T09:00:10.979Z,34.40
2018-07-25T09:02:40.484Z,34.30
2018-07-25T09:05:09.919Z,34.70
2018-07-25T09:07:39.527Z,35.10
2018-07-25T09:10:09.137Z,34.80
2018-07-25T09:12:38.688Z,34.50
2018-07-25T09:15:08.114Z,34.20
2018-07-25T09:17:37.622Z,34.10
2018-07-25T09:20:07.231Z,34.20
2018-07-25T09:22:36.772Z,34.20
2018-07-25T09:25:07.267Z,34.50
2018-07-25T09:27:36.685Z,34.40
2018-07-25T09:30:06.182Z,33.00
2018-07-25T09:32:35.859Z,32.80
2018-07-25T09:35:05.503Z,34.30
2018-07-25T09:37:35.104Z,35.10
2018-07-25T09:40:04.660Z,35.30
2018-07-25T09:42:34.107Z,36.10
2018-07-25T09:45:04.400Z,34.90
2018-07-25T09:47:33.790Z,35.60
2018-07-25T09:50:03.508Z,35.00
2018-07-25T09:52:33.034Z,34.30
2018-07-25T09:55:02.562Z,34.50
2018-07-25T09:57:32.008Z,34.70
2018-07-25T10:00:01.983Z,34.40
2018-07-25T10:02:31.421Z,34.40
2018-07-25T10:05:00.863Z,34.20
2018-07-25T10:07:30.259Z,34.20
2018-07-25T10:10:00.230Z,34.20
2018-07-25T10:12:29.677Z,35.10
2018-07-25T10:14:59.152Z,35.30
2018-07-25T10:17:28.682Z,34.60
2018-07-25T10:19:58.223Z,34.40
2018-07-25T10:22:27.717Z,34.80
2018-07-25T10:27:26.283Z,35.20
2018-07-25T10:29:55.697Z,35.30
2018-07-25T10:32:25.161Z,35.30
2018-07-25T10:34:54.757Z,35.30
2018-07-25T10:37:24.215Z,34.90
2018-07-25T10:39:53.799Z,35.30
2018-07-25T10:42:23.372Z,35.10
2018-07-25T10:44:52.919Z,35.70
2018-07-25T10:47:22.528Z,35.80
2018-07-25T10:49:52.754Z,35.30
2018-07-25T10:52:22.300Z,35.60
2018-07-25T10:54:53.417Z,36.20
2018-07-25T10:57:23.126Z,35.80
2018-07-25T10:59:53.203Z,35.40
2018-07-25T11:02:22.654Z,35.20
2018-07-25T11:04:52.243Z,35.60
2018-07-25T11:07:21.732Z,36.10
2018-07-25T11:09:51.380Z,36.30
2018-07-25T11:12:20.939Z,36.20
2018-07-25T11:14:50.581Z,35.60
2018-07-25T11:17:21.063Z,36.10
2018-07-25T11:19:50.690Z,36.20
2018-07-25T11:22:20.124Z,37.00
2018-07-25T11:24:49.620Z,37.80
2018-07-25T11:27:19.178Z,37.80
2018-07-25T11:29:48.801Z,37.40
2018-07-25T11:32:18.444Z,36.70
2018-07-25T11:34:47.930Z,36.30
2018-07-25T11:37:17.407Z,35.80
2018-07-25T11:39:47.052Z,36.00
2018-07-25T11:42:16.560Z,36.20
2018-07-25T11:44:46.072Z,36.90
2018-07-25T11:47:15.752Z,36.80
2018-07-25T11:49:45.193Z,36.60
2018-07-25T11:52:14.664Z,35.80
2018-07-25T11:54:44.272Z,37.20
2018-07-25T11:57:13.707Z,37.50
2018-07-25T11:59:43.167Z,37.10
2018-07-25T12:02:12.610Z,36.40
2018-07-25T12:04:42.044Z,36.30
2018-07-25T12:07:11.390Z,36.90
2018-07-25T12:09:40.858Z,36.40
2018-07-25T12:12:11.099Z,36.70
2018-07-25T12:14:40.571Z,37.60
2018-07-25T12:17:10.095Z,37.30
2018-07-25T12:19:39.122Z,36.80
2018-07-25T12:22:08.184Z,36.40
2018-07-25T12:24:37.299Z,36.70
2018-07-25T12:27:06.360Z,36.70
2018-07-25T12:29:35.354Z,37.10
2018-07-25T12:32:04.450Z,37.00
2018-07-25T12:34:33.459Z,37.20
2018-07-25T12:37:02.587Z,36.90
2018-07-25T12:39:31.634Z,37.30
2018-07-25T12:42:00.754Z,38.30
2018-07-25T12:44:29.848Z,38.00
2018-07-25T12:46:58.870Z,38.40
2018-07-25T12:49:27.917Z,37.60
2018-07-25T12:51:56.955Z,39.20
2018-07-25T12:54:26.006Z,38.80
2018-07-25T12:56:55.049Z,38.20
2018-07-25T12:59:24.314Z,37.50
2018-07-25T13:01:53.461Z,38.10
2018-07-25T13:06:51.142Z,38.20
2018-07-25T13:11:48.841Z,37.60
2018-07-25T13:14:17.876Z,36.70
2018-07-25T13:16:46.902Z,37.10
2018-07-25T13:21:44.608Z,37.40
2018-07-25T13:24:13.707Z,37.60
2018-07-25T13:26:42.781Z,38.00
2018-07-25T13:29:11.883Z,38.20
2018-07-25T13:31:41.748Z,37.50
2018-07-25T13:34:10.838Z,36.90
2018-07-25T13:36:39.889Z,36.40
2018-07-25T13:39:09.242Z,36.60
2018-07-25T13:41:38.354Z,36.60
2018-07-25T13:46:36.111Z,36.30
2018-07-25T13:49:05.387Z,36.70
2018-07-25T13:51:34.446Z,36.80
2018-07-25T13:54:04.467Z,36.90
2018-07-25T13:59:02.821Z,37.50
2018-07-25T14:01:32.251Z,37.20
2018-07-25T14:04:02.467Z,37.80
2018-07-25T14:06:31.769Z,38.40
2018-07-25T14:09:02.682Z,37.40
2018-07-25T14:11:32.428Z,35.20
2018-07-25T14:14:01.589Z,34.90
2018-07-25T14:16:30.969Z,35.00
2018-07-25T14:21:28.983Z,35.40
2018-07-25T14:23:59.106Z,34.80
2018-07-25T14:26:28.434Z,35.10
2018-07-25T14:28:58.073Z,34.80
2018-07-25T14:31:27.551Z,35.30
2018-07-25T14:33:57.015Z,36.10
2018-07-25T14:36:26.165Z,36.50
2018-07-25T14:38:55.275Z,36.20
2018-07-25T14:41:24.357Z,35.70
2018-07-25T14:43:54.132Z,36.50
2018-07-25T14:46:23.554Z,36.20
2018-07-25T14:48:52.977Z,36.10
2018-07-25T14:51:22.266Z,36.30
2018-07-25T14:53:51.419Z,36.10
2018-07-25T14:58:49.317Z,35.20
2018-07-25T15:01:18.715Z,35.00
2018-07-25T15:03:48.105Z,34.50
2018-07-25T15:06:17.478Z,34.20
2018-07-25T15:08:46.532Z,34.30
2018-07-25T15:11:15.860Z,34.00
2018-07-25T15:13:45.984Z,33.80
2018-07-25T15:16:15.040Z,33.70
2018-07-25T15:18:44.252Z,33.70
2018-07-25T15:21:13.521Z,33.50
2018-07-25T15:23:53.514Z,33.40
2018-07-25T15:26:22.830Z,33.40
2018-07-25T15:28:52.026Z,33.30
2018-07-25T15:31:21.337Z,33.20
2018-07-25T15:33:51.169Z,33.00
2018-07-25T15:38:55.989Z,33.00
2018-07-25T15:41:25.698Z,32.90
2018-07-25T15:43:55.001Z,32.80
2018-07-25T15:46:24.269Z,32.90
2018-07-25T15:48:53.770Z,32.50
2018-07-25T15:51:22.875Z,32.40
2018-07-25T15:53:52.004Z,32.40
2018-07-25T15:56:21.069Z,32.20
2018-07-25T15:58:50.321Z,32.60
2018-07-25T16:01:19.775Z,33.00
2018-07-25T16:03:48.908Z,33.40
2018-07-25T16:06:18.291Z,33.80
2018-07-25T16:08:47.477Z,33.30
2018-07-25T16:11:17.350Z,33.00
2018-07-25T16:13:46.654Z,32.60
2018-07-25T16:16:15.918Z,32.60
2018-07-25T16:18:45.206Z,32.20
2018-07-25T16:21:14.325Z,31.50
2018-07-25T16:26:12.540Z,29.00
2018-07-25T16:28:41.790Z,27.70
2018-07-25T16:31:11.378Z,27.10
2018-07-25T16:33:41.585Z,26.80
2018-07-25T16:36:11.771Z,26.80
2018-07-25T16:38:40.843Z,26.30
2018-07-25T16:41:10.123Z,25.80
2018-07-25T16:43:39.191Z,25.00
2018-07-25T16:46:08.238Z,24.60
2018-07-25T16:48:37.300Z,24.50
2018-07-25T16:51:06.390Z,24.80
2018-07-25T16:53:35.429Z,25.30
2018-07-25T16:56:04.574Z,25.20
2018-07-25T16:58:33.759Z,25.40
2018-07-25T17:01:02.919Z,24.80
2018-07-25T17:03:32.128Z,24.70
2018-07-25T17:08:30.582Z,24.80
2018-07-25T17:10:59.694Z,24.70
2018-07-25T17:15:57.851Z,24.20
2018-07-25T17:18:27.097Z,24.30
2018-07-25T17:20:56.302Z,24.10
2018-07-25T17:23:25.550Z,24.00
2018-07-25T17:25:54.812Z,24.80
2018-07-25T17:28:24.153Z,25.10
2018-07-25T17:30:53.269Z,25.40
2018-07-25T17:33:22.458Z,25.50
2018-07-25T17:35:51.520Z,25.50
2018-07-25T17:38:20.810Z,25.60
2018-07-25T17:40:51.060Z,25.60
2018-07-25T17:43:20.188Z,25.30
2018-07-25T17:45:49.270Z,25.10
2018-07-25T17:48:18.517Z,25.20
2018-07-25T17:50:47.611Z,25.00
2018-07-25T17:55:46.108Z,24.60
2018-07-25T17:58:15.211Z,24.60
2018-07-25T18:00:44.195Z,24.80
2018-07-25T18:05:42.015Z,24.60
2018-07-25T18:08:11.133Z,24.50
2018-07-25T18:10:40.152Z,24.50
2018-07-25T18:13:14.494Z,24.50
2018-07-25T18:15:43.817Z,24.50
2018-07-25T18:18:12.818Z,24.50
2018-07-25T18:20:41.882Z,24.40
2018-07-25T18:23:10.986Z,24.10
2018-07-25T18:25:40.047Z,23.90
2018-07-25T18:28:09.098Z,23.70
2018-07-25T18:30:38.241Z,23.70
2018-07-25T18:33:07.455Z,23.70
2018-07-25T18:35:36.802Z,23.80
2018-07-25T18:38:06.015Z,23.80
2018-07-25T18:40:35.149Z,23.90
2018-07-25T18:43:04.317Z,24.10
2018-07-25T18:45:33.349Z,24.20
2018-07-25T18:48:02.446Z,24.50
2018-07-25T18:50:31.569Z,24.60
2018-07-25T18:53:00.681Z,24.70
2018-07-25T18:55:29.794Z,24.80
2018-07-25T18:57:58.999Z,24.90
2018-07-25T19:00:28.053Z,25.10
2018-07-25T19:02:57.177Z,24.90
2018-07-25T19:05:30.726Z,24.70
2018-07-25T19:08:01.144Z,24.40
2018-07-25T19:10:30.671Z,24.30
2018-07-25T19:12:59.958Z,24.00
2018-07-25T19:15:30.403Z,24.70
2018-07-25T19:17:59.875Z,25.00
2018-07-25T19:20:29.143Z,24.90
2018-07-25T19:22:58.158Z,24.70
2018-07-25T19:25:27.245Z,24.40
2018-07-25T19:27:56.397Z,24.40
2018-07-25T19:30:25.456Z,24.40
2018-07-25T19:32:54.499Z,24.40
2018-07-25T19:35:23.550Z,24.60
2018-07-25T19:37:52.667Z,25.00
2018-07-25T19:40:21.839Z,24.90
2018-07-25T19:42:51.016Z,24.80
2018-07-25T19:45:20.165Z,24.90
2018-07-25T19:47:49.264Z,24.90
2018-07-25T19:50:18.962Z,25.00
2018-07-25T19:52:48.145Z,25.30
2018-07-25T19:55:17.286Z,25.50
2018-07-25T20:00:16.552Z,25.20
2018-07-25T20:02:44.401Z,25.10
2018-07-25T20:05:13.749Z,25.00
2018-07-25T20:07:42.805Z,24.90
2018-07-25T20:10:11.911Z,24.90
2018-07-25T20:12:41.052Z,25.00
2018-07-25T20:15:15.665Z,25.00
2018-07-25T20:20:13.466Z,25.00
2018-07-25T20:22:42.665Z,25.00
2018-07-25T20:27:40.443Z,24.90
2018-07-25T20:30:10.072Z,24.80
2018-07-25T20:32:39.613Z,24.80
2018-07-25T20:35:08.638Z,24.70
2018-07-25T20:37:37.953Z,24.80
2018-07-25T20:42:35.965Z,24.60
2018-07-25T20:45:05.640Z,24.90
2018-07-25T20:50:03.508Z,24.80
2018-07-25T20:52:32.624Z,24.80
2018-07-25T20:55:01.717Z,24.70
2018-07-25T20:59:59.565Z,24.70
2018-07-25T21:02:28.697Z,24.70
2018-07-25T21:04:57.756Z,25.10
2018-07-25T21:07:26.891Z,25.30
2018-07-25T21:09:56.243Z,25.20
2018-07-25T21:12:25.654Z,24.80
2018-07-25T21:14:54.705Z,24.40
2018-07-25T21:17:24.470Z,24.20
2018-07-25T21:19:53.487Z,24.20
2018-07-25T21:22:23.378Z,24.10
2018-07-25T21:24:52.408Z,24.20
2018-07-25T21:27:21.493Z,24.20
2018-07-25T21:32:19.240Z,24.40
2018-07-25T21:34:48.327Z,24.60
2018-07-25T21:37:17.532Z,24.40
2018-07-25T21:39:46.580Z,24.20
2018-07-25T21:42:15.790Z,24.10
2018-07-25T21:44:44.832Z,24.10
2018-07-25T21:47:14.013Z,24.10
2018-07-25T21:49:43.591Z,24.00
2018-07-25T21:52:12.622Z,24.00
2018-07-25T21:54:41.749Z,24.10
2018-07-25T21:57:10.849Z,24.00
2018-07-25T21:59:39.953Z,24.10
2018-07-25T22:07:06.337Z,23.90
2018-07-25T22:09:35.367Z,24.00
2018-07-25T22:12:05.429Z,24.00
2018-07-25T22:14:34.558Z,24.00
2018-07-25T22:17:03.598Z,23.90
2018-07-25T22:19:32.660Z,23.50
2018-07-25T22:22:01.848Z,23.10
2018-07-25T22:24:30.944Z,23.00
2018-07-25T22:27:00.174Z,22.80
2018-07-25T22:29:29.313Z,22.60
2018-07-25T22:31:58.349Z,22.20
2018-07-25T22:34:27.408Z,22.10
2018-07-25T22:36:56.419Z,22.10
2018-07-25T22:39:25.456Z,22.10
2018-07-25T22:46:51.697Z,22.20
2018-07-25T22:51:49.434Z,22.10
2018-07-25T22:54:18.565Z,22.10
2018-07-25T22:56:47.577Z,22.10
2018-07-25T22:59:16.581Z,22.00
2018-07-25T23:04:14.236Z,21.90
2018-07-25T23:06:43.273Z,21.90
2018-07-25T23:09:12.573Z,21.80
2018-07-25T23:11:42.208Z,21.80
2018-07-25T23:14:11.347Z,21.70
2018-07-25T23:16:41.278Z,21.70
2018-07-25T23:19:10.291Z,21.60
2018-07-25T23:21:39.381Z,21.50
2018-07-25T23:24:08.491Z,21.50
2018-07-25T23:26:37.543Z,21.50
2018-07-25T23:31:35.202Z,21.80
2018-07-25T23:34:04.242Z,21.90
2018-07-25T23:36:33.275Z,22.00
2018-07-25T23:39:02.296Z,21.90
2018-07-25T23:44:00.018Z,22.20
2018-07-25T23:46:29.010Z,22.20
2018-07-25T23:48:58.005Z,22.30
2018-07-25T23:51:27.032Z,22.30
2018-07-25T23:53:56.044Z,22.30
2018-07-25T23:56:25.112Z,22.10
2018-07-25T23:58:54.114Z,22.20
